Time;durP1;ratioP1;P1;durP2;ratioP2;P2;SDS_P1;SDS_P2;PMS_P1;PMS_P2;Temp;Humidity;BMP_temperature;BMP_pressure;BME280_temperature;BME280_humidity;BME280_pressure;Samples;Min_cycle;Max_cycle;Signal;HPM_P1;HPM_P2
2021/12/11 00:01:40;;;;;;;22.10;11.45;;;;;;;-1.61;99.01;100529.22;5002399;28;20042;-75
2021/12/11 00:04:12;;;;;;;16.45;8.32;;;;;;;-1.59;99.68;100535.16;4998319;28;20462;-75
2021/12/11 00:06:41;;;;;;;12.50;8.77;;;;;;;-1.51;99.91;100561.47;5002629;28;20518;-75
2021/12/11 00:09:21;;;;;;;20.90;9.10;;;;;;;-1.66;100.00;100545.81;5003739;28;20029;-75
2021/12/11 00:11:58;;;;;;;18.47;9.27;;;;;;;-1.48;100.00;100577.69;5004784;28;20038;-75
2021/12/11 00:14:29;;;;;;;10.98;6.43;;;;;;;-1.49;100.00;100582.94;4987468;28;20542;-75
2021/12/11 00:16:54;;;;;;;14.43;8.65;;;;;;;-1.54;100.00;100566.81;4988405;28;20030;-75
2021/12/11 00:19:25;;;;;;;18.92;8.60;;;;;;;-1.50;100.00;100581.28;5005743;28;20536;-75
2021/12/11 00:21:51;;;;;;;14.40;9.13;;;;;;;-1.59;100.00;100577.41;5003367;28;20034;-75
2021/12/11 00:24:26;;;;;;;14.65;8.25;;;;;;;-1.71;100.00;100567.69;4991345;28;20030;-74
2021/12/11 00:27:03;;;;;;;13.13;7.35;;;;;;;-1.78;100.00;100566.34;5021337;28;20099;-75
2021/12/11 00:29:29;;;;;;;14.52;7.53;;;;;;;-1.86;100.00;100571.88;5036605;28;20108;-75
2021/12/11 00:32:00;;;;;;;13.05;8.25;;;;;;;-1.86;100.00;100577.88;5021162;28;20545;-77
2021/12/11 00:34:25;;;;;;;15.98;8.35;;;;;;;-1.95;100.00;100564.59;5027472;28;20048;-74
2021/12/11 00:37:00;;;;;;;11.63;7.47;;;;;;;-1.92;100.00;100582.53;5044348;28;20029;-74
2021/12/11 00:39:26;;;;;;;8.38;6.05;;;;;;;-2.01;100.00;100578.66;5025642;28;20072;-74
2021/12/11 00:41:55;;;;;;;9.90;6.22;;;;;;;-2.04;100.00;100578.00;5032092;28;20072;-74
2021/12/11 00:44:33;;;;;;;12.13;6.63;;;;;;;-1.94;100.00;100597.28;5006275;28;20038;-74
2021/12/11 00:47:20;;;;;;;11.02;5.50;;;;;;;-1.88;100.00;100604.75;5020649;28;20091;-74
2021/12/11 00:49:49;;;;;;;15.77;7.25;;;;;;;-1.84;100.00;100621.78;5022798;28;20033;-75
2021/12/11 00:52:14;;;;;;;9.32;6.10;;;;;;;-1.85;100.00;100620.13;5039891;28;20413;-74
2021/12/11 00:54:45;;;;;;;11.07;5.88;;;;;;;-1.86;100.00;100624.44;5045372;28;20025;-74
2021/12/11 00:57:13;;;;;;;11.52;6.60;;;;;;;-1.79;100.00;100632.75;5037074;28;20062;-74
2021/12/11 00:59:38;;;;;;;16.23;6.63;;;;;;;-1.80;100.00;100628.50;5044002;28;20022;-74
2021/12/11 01:02:06;;;;;;;9.07;5.72;;;;;;;-1.92;100.00;100618.75;5042442;28;20033;-73
2021/12/11 01:04:41;;;;;;;10.85;5.68;;;;;;;-1.94;100.00;100624.00;5041272;28;20492;-73
2021/12/11 01:07:18;;;;;;;11.55;6.60;;;;;;;-1.77;100.00;100645.59;5054748;28;20021;-73
2021/12/11 01:09:57;;;;;;;14.23;6.95;;;;;;;-1.85;100.00;100643.41;5048997;28;20467;-73
2021/12/11 01:12:39;;;;;;;15.18;7.97;;;;;;;-1.80;100.00;100658.72;5045798;28;20115;-73
2021/12/11 01:15:18;;;;;;;13.63;6.60;;;;;;;-1.75;100.00;100662.72;5044400;28;20575;-73
2021/12/11 01:18:04;;;;;;;11.20;6.13;;;;;;;-1.82;100.00;100669.13;5041360;28;20436;-73
2021/12/11 01:20:48;;;;;;;12.35;8.40;;;;;;;-1.79;100.00;100671.53;5043213;28;20029;-73
2021/12/11 01:23:56;;;;;;;12.38;7.63;;;;;;;-1.82;100.00;100676.88;5041651;28;20452;-74
2021/12/11 01:26:06;;;;;;;14.85;8.45;;;;;;;-1.86;100.00;100685.69;5039071;28;20103;-73
2021/12/11 01:28:32;;;;;;;19.90;10.02;;;;;;;-1.93;100.00;100673.97;5044439;28;20032;-73
2021/12/11 01:31:00;;;;;;;20.63;11.20;;;;;;;-1.97;100.00;100683.63;5051038;28;20031;-73
2021/12/11 01:33:27;;;;;;;18.02;9.93;;;;;;;-2.07;100.00;100672.91;5039715;28;20039;-73
2021/12/11 01:35:52;;;;;;;10.05;7.53;;;;;;;-1.92;100.00;100704.09;5046819;28;20063;-73
2021/12/11 01:38:22;;;;;;;11.25;7.32;;;;;;;-1.95;100.00;100702.50;5042470;28;20064;-73
2021/12/11 01:40:51;;;;;;;15.48;6.32;;;;;;;-1.78;100.00;100724.97;5038242;28;20388;-73
2021/12/11 01:43:21;;;;;;;13.35;7.82;;;;;;;-1.69;100.00;100729.69;5046853;28;20070;-75
2021/12/11 01:45:49;;;;;;;14.93;6.97;;;;;;;-1.64;100.00;100739.81;5038083;28;20057;-73
2021/12/11 01:48:26;;;;;;;8.68;5.68;;;;;;;-1.59;100.00;100740.47;5038276;28;20116;-72
2021/12/11 01:51:20;;;;;;;9.48;5.78;;;;;;;-1.56;100.00;100744.66;5040728;28;20117;-72
2021/12/11 01:53:52;;;;;;;8.52;5.68;;;;;;;-1.57;100.00;100740.38;5052732;28;20041;-72
2021/12/11 01:56:21;;;;;;;10.32;5.72;;;;;;;-1.52;100.00;100743.59;5037992;28;20041;-72
2021/12/11 01:58:57;;;;;;;9.23;4.90;;;;;;;-1.40;100.00;100747.31;5042101;28;20033;-73
2021/12/11 02:01:30;;;;;;;8.10;5.07;;;;;;;-1.37;100.00;100754.91;5046849;28;20021;-72
2021/12/11 02:03:57;;;;;;;7.82;4.95;;;;;;;-1.34;100.00;100755.59;5046303;28;20107;-73
2021/12/11 02:06:28;;;;;;;10.35;6.75;;;;;;;-1.34;100.00;100759.97;5026403;28;20030;-72
2021/12/11 02:08:53;;;;;;;8.00;5.20;;;;;;;-1.44;100.00;100749.19;5035987;28;20060;-72
2021/12/11 02:11:23;;;;;;;10.70;5.15;;;;;;;-1.39;100.00;100757.59;5046379;28;20063;-72
2021/12/11 02:13:56;;;;;;;10.53;6.17;;;;;;;-1.41;100.00;100746.47;5039717;28;20049;-72
2021/12/11 02:16:29;;;;;;;8.70;5.22;;;;;;;-1.22;100.00;100785.22;5057234;28;20029;-72
2021/12/11 02:19:04;;;;;;;12.77;7.60;;;;;;;-1.25;100.00;100786.22;5041549;28;20033;-72
2021/12/11 02:21:33;;;;;;;10.40;6.85;;;;;;;-1.29;100.00;100783.84;5052834;28;20060;-72
2021/12/11 02:24:04;;;;;;;11.98;6.65;;;;;;;-1.11;100.00;100797.63;5039780;28;20103;-72
2021/12/11 02:26:32;;;;;;;;;;;;;;;-1.06;100.00;100793.09;5042164;28;20142;-72
2021/12/11 02:29:12;;;;;;;8.77;5.75;;;;;;;-1.23;100.00;100757.66;5045334;28;20377;-72
2021/12/11 02:31:47;;;;;;;11.15;6.18;;;;;;;-0.98;100.00;100790.97;5048437;28;20031;-72
2021/12/11 02:34:15;;;;;;;12.82;6.35;;;;;;;-0.96;100.00;100793.44;5038508;28;20104;-72
2021/12/11 02:36:46;;;;;;;10.45;7.68;;;;;;;-0.91;100.00;100789.72;5039821;28;20017;-72
2021/12/11 02:39:20;;;;;;;17.10;7.75;;;;;;;-1.00;100.00;100759.09;5037012;28;20112;-72
2021/12/11 02:41:49;;;;;;;13.60;7.40;;;;;;;-0.92;100.00;100777.66;5054767;28;20481;-72
2021/12/11 02:44:29;;;;;;;14.35;8.38;;;;;;;-0.88;100.00;100784.38;5051694;28;20611;-72
2021/12/11 02:47:30;;;;;;;17.25;9.13;;;;;;;-1.01;100.00;100767.78;5043182;28;20033;-72
2021/12/11 02:50:03;;;;;;;21.08;10.23;;;;;;;-1.10;100.00;100747.53;5008101;28;20042;-72
2021/12/11 02:52:38;;;;;;;20.67;9.95;;;;;;;-1.00;100.00;100774.66;5000864;28;20494;-72
2021/12/11 02:55:22;;;;;;;11.52;7.32;;;;;;;-1.15;100.00;100765.91;4989703;28;20025;-73
2021/12/11 02:57:52;;;;;;;12.82;8.57;;;;;;;-0.92;100.00;100818.28;4985644;28;20034;-73
2021/12/11 03:00:29;;;;;;;16.17;9.33;;;;;;;-0.86;100.00;100803.28;5003001;28;20037;-73
2021/12/11 03:03:03;;;;;;;19.67;9.13;;;;;;;-0.80;100.00;100803.91;5007446;28;20017;-73
2021/12/11 03:05:39;;;;;;;20.10;9.48;;;;;;;-0.91;100.00;100792.31;4984353;28;20044;-73
2021/12/11 03:08:08;;;;;;;10.27;7.57;;;;;;;-0.86;100.00;100805.88;5001886;28;20088;-72
2021/12/11 03:10:35;;;;;;;14.00;9.27;;;;;;;-0.73;100.00;100824.22;5004941;28;20115;-72
2021/12/11 03:13:01;;;;;;;16.70;8.75;;;;;;;-0.70;100.00;100813.69;4982762;28;20034;-72
2021/12/11 03:15:26;;;;;;;13.75;8.50;;;;;;;-0.66;100.00;100809.19;4988704;28;20041;-72
2021/12/11 03:17:52;;;;;;;17.83;8.93;;;;;;;-0.62;100.00;100821.09;5003052;28;20034;-72
2021/12/11 03:20:21;;;;;;;17.35;9.75;;;;;;;-0.64;100.00;100810.78;5002259;28;20057;-73
2021/12/11 03:22:47;;;;;;;18.00;10.35;;;;;;;-0.56;100.00;100823.38;4999949;28;20549;-72
2021/12/11 03:25:18;;;;;;;15.07;8.82;;;;;;;-0.59;100.00;100813.13;5004995;28;20136;-72
2021/12/11 03:27:45;;;;;;;18.50;9.93;;;;;;;-0.52;100.00;100830.06;5042424;28;20104;-72
2021/12/11 03:30:14;;;;;;;20.40;9.25;;;;;;;-0.61;100.00;100804.59;5035328;28;20508;-72
2021/12/11 03:32:40;;;;;;;19.48;10.65;;;;;;;-0.51;100.00;100831.72;5038081;28;20017;-72
2021/12/11 03:35:09;;;;;;;16.02;10.75;;;;;;;-0.67;100.00;100805.78;5039215;28;20063;-72
2021/12/11 03:37:34;;;;;;;19.55;10.38;;;;;;;-0.53;100.00;100824.97;5039040;28;20029;-72
2021/12/11 03:40:00;;;;;;;26.63;10.80;;;;;;;-0.56;100.00;100831.16;5040832;28;20083;-72
2021/12/11 03:42:31;;;;;;;24.40;11.55;;;;;;;-0.68;100.00;100822.22;5040289;28;20069;-72
2021/12/11 03:44:59;;;;;;;20.67;11.65;;;;;;;-0.69;100.00;100824.91;5036540;28;20033;-73
2021/12/11 03:47:29;;;;;;;20.20;12.20;;;;;;;-0.84;100.00;100818.75;5037011;28;20029;-72
2021/12/11 03:49:55;;;;;;;20.17;11.90;;;;;;;-0.87;100.00;100832.72;5043374;28;20075;-73
2021/12/11 03:52:21;;;;;;;19.90;10.20;;;;;;;-0.83;100.00;100856.69;5040808;28;20132;-74
2021/12/11 03:54:49;;;;;;;18.05;9.57;;;;;;;-0.77;100.00;100871.09;5051700;28;20480;-74
2021/12/11 03:57:19;;;;;;;15.80;9.75;;;;;;;-0.78;100.00;100891.00;5041514;28;20028;-72
2021/12/11 03:59:48;;;;;;;18.85;9.40;;;;;;;-0.82;100.00;100892.06;5036626;28;20148;-73
2021/12/11 04:02:18;;;;;;;16.08;8.68;;;;;;;-0.88;100.00;100890.59;5043978;28;20078;-73
2021/12/11 04:04:51;;;;;;;15.50;8.85;;;;;;;-0.86;100.00;100906.09;5046060;28;20028;-73
2021/12/11 04:07:30;;;;;;;16.48;7.88;;;;;;;-1.01;100.00;100886.13;5044680;28;20112;-73
2021/12/11 04:09:56;;;;;;;13.38;8.63;;;;;;;-0.88;100.00;100913.94;5046665;28;20029;-73
2021/12/11 04:12:25;;;;;;;13.27;8.73;;;;;;;-0.92;100.00;100912.41;5039613;28;20082;-73
2021/12/11 04:14:55;;;;;;;16.92;8.60;;;;;;;-1.09;100.00;100899.41;5046227;28;20112;-73
2021/12/11 04:17:25;;;;;;;16.60;8.55;;;;;;;-1.06;100.00;100910.47;5044356;28;20112;-73
2021/12/11 04:19:55;;;;;;;15.87;9.40;;;;;;;-1.01;100.00;100928.41;5040386;28;20477;-73
2021/12/11 04:22:21;;;;;;;14.90;9.30;;;;;;;-1.03;100.00;100930.22;5044702;28;20392;-73
2021/12/11 04:24:48;;;;;;;11.68;8.23;;;;;;;-1.06;100.00;100931.22;5051073;28;20346;-73
2021/12/11 04:27:16;;;;;;;16.40;9.77;;;;;;;-1.10;100.00;100936.59;5028775;28;20116;-73
2021/12/11 04:29:43;;;;;;;19.55;9.90;;;;;;;-1.12;100.00;100931.50;5042142;28;20523;-73
2021/12/11 04:32:10;;;;;;;15.02;9.73;;;;;;;-1.12;100.00;100935.84;5049389;28;20072;-73
2021/12/11 04:34:37;;;;;;;20.27;10.85;;;;;;;-1.21;100.00;100928.50;5040726;28;20037;-72
2021/12/11 04:37:15;;;;;;;18.80;9.35;;;;;;;-1.33;100.00;100917.84;5044151;28;20036;-72
2021/12/11 04:39:44;;;;;;;20.63;10.70;;;;;;;-1.15;100.00;100946.38;5044297;28;20037;-73
2021/12/11 04:42:30;;;;;;;18.73;9.18;;;;;;;-1.22;100.00;100942.34;5046998;28;20025;-73
2021/12/11 04:44:56;;;;;;;18.05;10.10;;;;;;;-1.25;100.00;100941.59;5050265;28;20373;-72
2021/12/11 04:50:06;;;;;;;18.55;10.13;;;;;;;-1.26;100.00;100945.09;5036054;28;20034;-72
2021/12/11 04:52:34;;;;;;;19.45;10.60;;;;;;;-1.18;100.00;100957.69;5048744;28;20056;-72
2021/12/11 04:55:27;;;;;;;21.98;10.60;;;;;;;-1.10;100.00;100957.34;5043198;28;20052;-73
2021/12/11 05:06:37;;;;;;;20.88;10.73;;;;;;;-0.93;100.00;100962.56;4992558;28;20410;-72
2021/12/11 05:11:53;;;;;;;20.92;10.55;;;;;;;-0.76;100.00;100977.28;4984805;28;20483;-72
2021/12/11 05:14:22;;;;;;;19.27;11.25;;;;;;;-0.71;100.00;100971.88;4985410;28;20482;-73
2021/12/11 05:16:47;;;;;;;18.98;10.50;;;;;;;-0.66;100.00;100980.25;4970900;28;20041;-73
2021/12/11 05:19:14;;;;;;;23.58;11.25;;;;;;;-0.65;100.00;100987.97;4969238;28;20470;-73
2021/12/11 05:21:41;;;;;;;17.42;10.63;;;;;;;-0.82;100.00;100958.63;4983974;28;20049;-73
2021/12/11 05:24:08;;;;;;;22.83;11.05;;;;;;;-0.69;100.00;100988.19;4986054;28;20042;-73
2021/12/11 05:26:35;;;;;;;19.40;10.93;;;;;;;-0.75;100.00;100996.28;4974369;28;20080;-73
2021/12/11 05:29:01;;;;;;;19.38;9.65;;;;;;;-0.73;100.00;101004.81;4969662;28;20137;-72
2021/12/11 05:31:26;;;;;;;16.33;10.57;;;;;;;-0.80;100.00;100980.13;4985713;28;20042;-72
2021/12/11 05:33:52;;;;;;;17.75;10.32;;;;;;;-0.68;100.00;101006.25;4986938;28;20022;-72
2021/12/11 05:36:19;;;;;;;19.65;11.07;;;;;;;-0.66;100.00;101011.38;5041919;28;20049;-72
2021/12/11 05:38:48;;;;;;;22.90;10.50;;;;;;;-0.71;100.00;101008.16;5020975;28;20029;-73
2021/12/11 05:41:15;;;;;;;18.92;11.30;;;;;;;-0.69;100.00;101011.53;5043173;28;20037;-72
2021/12/11 05:43:42;;;;;;;18.70;10.68;;;;;;;-0.87;100.00;100988.16;5039071;28;20036;-73
2021/12/11 05:46:09;;;;;;;19.10;11.18;;;;;;;-0.76;100.00;101011.00;5037845;28;20041;-73
2021/12/11 05:48:35;;;;;;;18.58;11.07;;;;;;;-0.81;100.00;101017.28;5042735;28;20036;-73
2021/12/11 05:51:05;;;;;;;21.77;11.73;;;;;;;-0.76;100.00;101033.44;5024393;28;20476;-73
2021/12/11 05:53:32;;;;;;;23.40;12.50;;;;;;;-0.84;100.00;101019.13;5038144;28;20074;-73
2021/12/11 05:56:00;;;;;;;27.90;13.40;;;;;;;-0.85;100.00;101034.72;5045210;28;20033;-73
2021/12/11 05:58:46;;;;;;;26.15;12.45;;;;;;;-0.89;100.00;101031.47;5035828;28;20056;-73
2021/12/11 06:01:22;;;;;;;28.73;12.73;;;;;;;-0.98;100.00;101025.84;5035568;28;20036;-73
2021/12/11 06:03:48;;;;;;;22.67;12.23;;;;;;;-0.98;100.00;101043.97;5041623;28;20424;-73
2021/12/11 06:06:14;;;;;;;24.00;11.93;;;;;;;-1.01;100.00;101042.38;5040205;28;20125;-73
2021/12/11 06:08:40;;;;;;;27.63;12.98;;;;;;;-1.28;100.00;100997.88;5042713;28;20533;-73
2021/12/11 06:11:06;;;;;;;24.75;13.25;;;;;;;-1.03;100.00;101044.19;5021058;28;20084;-73
2021/12/11 06:13:32;;;;;;;25.52;12.82;;;;;;;-1.01;100.00;101046.72;5040942;28;20031;-73
2021/12/11 06:15:59;;;;;;;24.60;13.23;;;;;;;-1.07;100.00;101053.00;5038107;28;20493;-75
2021/12/11 06:18:25;;;;;;;27.27;13.77;;;;;;;-1.13;100.00;101048.97;5037473;28;20033;-73
2021/12/11 06:20:53;;;;;;;24.80;13.85;;;;;;;-1.20;100.00;101051.91;5032258;28;20509;-73
2021/12/11 06:23:21;;;;;;;26.27;13.82;;;;;;;-1.26;100.00;101040.91;5035237;28;20022;-73
2021/12/11 06:25:48;;;;;;;23.85;13.55;;;;;;;-1.10;100.00;101073.88;5031290;28;20486;-73
2021/12/11 06:28:14;;;;;;;30.23;15.57;;;;;;;-1.12;100.00;101070.53;5029259;28;20051;-73
2021/12/11 06:30:40;;;;;;;29.45;13.75;;;;;;;-1.12;100.00;101076.53;5031742;28;20029;-73
2021/12/11 06:33:07;;;;;;;25.65;14.50;;;;;;;-1.16;100.00;101084.53;5052048;28;20571;-73
2021/12/11 06:35:44;;;;;;;31.73;15.05;;;;;;;-1.19;100.00;101087.25;5031676;28;20444;-73
2021/12/11 06:38:13;;;;;;;26.48;13.18;;;;;;;-1.30;100.00;101079.97;5029778;28;20041;-73
2021/12/11 06:40:39;;;;;;;25.30;14.32;;;;;;;-1.35;100.00;101077.59;5038599;28;20037;-73
2021/12/11 06:43:05;;;;;;;29.10;15.50;;;;;;;-1.36;100.00;101088.84;5041983;28;20076;-73
2021/12/11 06:45:31;;;;;;;37.28;22.02;;;;;;;-1.31;100.00;101097.22;5031638;28;20044;-74
2021/12/11 06:47:57;;;;;;;26.90;15.98;;;;;;;-1.33;100.00;101112.03;5041987;28;20439;-72
2021/12/11 06:50:24;;;;;;;34.70;14.77;;;;;;;-1.33;100.00;101109.44;5043579;28;20037;-72
2021/12/11 06:52:53;;;;;;;32.38;16.02;;;;;;;-1.40;100.00;101102.81;5037790;28;21255;-72
2021/12/11 06:55:19;;;;;;;27.77;13.88;;;;;;;-1.35;100.00;101119.00;5044384;28;20037;-73
2021/12/11 06:57:45;;;;;;;33.38;15.68;;;;;;;-1.36;100.00;101114.72;5041787;28;20501;-72
2021/12/11 07:00:14;;;;;;;33.58;16.67;;;;;;;-1.38;100.00;101126.91;5035026;28;20035;-72
2021/12/11 07:02:39;;;;;;;30.48;15.75;;;;;;;-1.40;100.00;101133.88;5031675;28;20440;-72
2021/12/11 07:05:05;;;;;;;29.02;13.98;;;;;;;-1.48;100.00;101125.59;5042469;28;20048;-74
2021/12/11 07:07:34;;;;;;;32.13;16.30;;;;;;;-1.46;100.00;101136.75;5041570;28;20122;-72
2021/12/11 07:10:03;;;;;;;32.33;17.35;;;;;;;-1.51;100.00;101149.03;5040324;28;20041;-72
2021/12/11 07:12:28;;;;;;;31.15;15.75;;;;;;;-1.54;100.00;101141.44;5036177;28;20378;-73
2021/12/11 07:14:54;;;;;;;32.22;15.32;;;;;;;-1.64;100.00;101125.44;5038778;28;20041;-72
2021/12/11 07:17:21;;;;;;;28.73;15.50;;;;;;;-1.54;100.00;101146.59;5034568;28;20076;-72
2021/12/11 07:19:47;;;;;;;26.17;14.20;;;;;;;-1.52;100.00;101149.97;5043642;28;20036;-72
2021/12/11 07:22:14;;;;;;;33.45;15.73;;;;;;;-1.51;100.00;101159.41;5041215;28;20033;-72
2021/12/11 07:24:50;;;;;;;28.27;15.63;;;;;;;-1.51;100.00;101156.81;5036931;28;20036;-73
2021/12/11 07:27:17;;;;;;;35.08;14.95;;;;;;;-1.52;100.00;101166.34;5035058;28;20082;-73
2021/12/11 07:29:45;;;;;;;28.38;15.18;;;;;;;-1.52;100.00;101168.09;5032318;28;20469;-73
2021/12/11 07:32:11;;;;;;;37.17;17.85;;;;;;;-1.57;100.00;101170.00;5039019;28;20371;-72
2021/12/11 07:34:38;;;;;;;27.38;15.70;;;;;;;-1.59;100.00;101170.09;5033401;28;20033;-72
2021/12/11 07:37:04;;;;;;;27.02;16.83;;;;;;;-1.62;100.00;101169.38;5040553;28;20040;-72
2021/12/11 07:39:30;;;;;;;28.35;13.55;;;;;;;-1.57;100.00;101185.53;5041143;28;20058;-73
2021/12/11 07:41:57;;;;;;;31.70;15.73;;;;;;;-1.50;100.00;101195.59;5038430;28;20041;-73
2021/12/11 07:44:24;;;;;;;25.15;14.48;;;;;;;-1.52;100.00;101183.63;5027681;28;20033;-73
2021/12/11 07:46:51;;;;;;;29.88;15.32;;;;;;;-1.60;100.00;101183.09;5040972;28;20086;-73
2021/12/11 07:49:17;;;;;;;25.33;13.85;;;;;;;-1.53;100.00;101195.69;5044870;28;20039;-73
2021/12/11 07:51:43;;;;;;;27.30;14.82;;;;;;;-1.60;100.00;101189.09;5037568;28;20123;-74
2021/12/11 07:54:08;;;;;;;33.92;13.73;;;;;;;-1.56;100.00;101202.78;5023434;28;20053;-72
2021/12/11 07:56:35;;;;;;;23.35;12.32;;;;;;;-1.76;100.00;101188.91;5041708;28;20849;-72
2021/12/11 07:59:03;;;;;;;32.85;14.98;;;;;;;-1.71;100.00;101206.81;5038923;28;20642;-72
2021/12/11 08:01:30;;;;;;;34.13;15.85;;;;;;;-1.73;100.00;101209.47;5045666;28;20063;-72
2021/12/11 08:03:59;;;;;;;31.75;14.80;;;;;;;-1.77;100.00;101213.06;5042867;28;20033;-72
2021/12/11 08:06:25;;;;;;;30.35;14.25;;;;;;;-1.74;100.00;101217.28;5043454;28;20047;-73
2021/12/11 08:08:51;;;;;;;27.73;13.70;;;;;;;-1.87;100.00;101202.25;5047703;28;20773;-80
2021/12/11 08:11:18;;;;;;;28.25;12.88;;;;;;;-1.73;100.00;101225.00;5045036;28;20539;-75
2021/12/11 08:13:48;;;;;;;31.52;15.52;;;;;;;-1.77;100.00;101220.84;5036174;28;20547;-72
2021/12/11 08:16:19;;;;;;;31.75;15.95;;;;;;;-1.84;100.00;101203.88;5035511;28;20029;-74
2021/12/11 08:18:44;;;;;;;;;;;;;;;-1.61;100.00;101238.34;5051692;28;20086;-72
2021/12/11 08:21:10;;;;;;;26.85;14.30;;;;;;;-1.57;100.00;101248.50;5041752;28;19913;-72
2021/12/11 08:23:43;;;;;;;28.25;14.60;;;;;;;-1.64;100.00;101228.13;5041492;28;20485;-74
2021/12/11 08:26:09;;;;;;;34.75;13.80;;;;;;;-1.46;100.00;101248.06;5036825;28;20357;-73
2021/12/11 08:28:34;;;;;;;27.10;12.43;;;;;;;-1.31;100.00;101268.13;5044520;28;20508;-73
2021/12/11 08:31:00;;;;;;;31.33;15.07;;;;;;;-1.10;100.00;101260.41;5050805;28;20386;-74
2021/12/11 08:33:26;;;;;;;39.97;17.13;;;;;;;-0.88;100.00;101275.88;5022398;28;20222;-74
2021/12/11 08:35:54;;;;;;;29.20;15.82;;;;;;;-0.86;100.00;101274.88;5042342;28;20037;-74
2021/12/11 08:38:19;;;;;;;29.13;16.05;;;;;;;-0.81;100.00;101277.28;5040592;28;20093;-74
2021/12/11 08:40:50;;;;;;;28.90;15.75;;;;;;;-0.75;100.00;101281.38;5041911;28;20037;-74
2021/12/11 08:43:17;;;;;;;29.57;14.17;;;;;;;-0.66;100.00;101278.38;5035222;28;20033;-73
2021/12/11 08:45:56;;;;;;;29.48;14.52;;;;;;;-0.55;100.00;101283.91;5041801;28;20033;-73
2021/12/11 08:48:23;;;;;;;28.35;14.38;;;;;;;-0.57;100.00;101288.31;5041925;28;20032;-73
2021/12/11 08:50:54;;;;;;;27.40;14.73;;;;;;;-0.52;100.00;101286.38;5034492;28;20112;-73
2021/12/11 08:53:20;;;;;;;29.17;14.83;;;;;;;-0.59;100.00;101292.72;5038413;28;20032;-73
2021/12/11 08:55:49;;;;;;;26.75;13.02;;;;;;;-0.58;100.00;101307.41;5044475;28;20033;-74
2021/12/11 08:58:18;;;;;;;23.73;11.73;;;;;;;-0.52;100.00;101309.72;5040409;28;20552;-74
2021/12/11 09:01:08;;;;;;;21.17;12.13;;;;;;;-0.27;100.00;101313.81;5039046;28;20566;-75
2021/12/11 09:03:51;;;;;;;25.70;15.10;;;;;;;-0.04;100.00;101294.63;5039419;28;20554;-75
2021/12/11 09:06:38;;;;;;;22.33;12.35;;;;;;;0.30;100.00;101306.84;5044182;28;20045;-77
2021/12/11 09:09:19;;;;;;;28.90;13.65;;;;;;;0.94;98.59;101323.66;5044560;28;20033;-75
2021/12/11 09:11:59;;;;;;;23.85;13.52;;;;;;;0.80;95.96;101308.75;5042564;28;20029;-75
2021/12/11 09:14:35;;;;;;;21.25;11.82;;;;;;;0.89;96.10;101311.81;5037660;28;20470;-76
2021/12/11 09:17:20;;;;;;;21.88;11.57;;;;;;;1.02;95.13;101328.47;5043696;28;20112;-77
2021/12/11 09:19:51;;;;;;;24.20;12.40;;;;;;;1.03;94.97;101317.16;5042731;28;20036;-78
2021/12/11 09:22:30;;;;;;;21.23;12.10;;;;;;;1.38;94.11;101309.34;5039361;28;20464;-76
2021/12/11 09:25:11;;;;;;;22.73;12.15;;;;;;;1.55;92.45;101335.31;5042366;28;20029;-76
2021/12/11 09:27:40;;;;;;;22.88;12.00;;;;;;;2.37;92.66;101336.97;5046279;28;20021;-77
2021/12/11 09:30:18;;;;;;;21.08;12.20;;;;;;;3.85;87.93;101323.97;5041178;28;20485;-76
2021/12/11 09:32:54;;;;;;;20.55;12.63;;;;;;;5.09;80.16;101327.38;5042601;28;20040;-76
2021/12/11 09:35:28;;;;;;;18.35;12.32;;;;;;;6.87;77.75;101335.00;5047227;28;20479;-76
2021/12/11 09:37:59;;;;;;;18.02;11.73;;;;;;;7.74;70.47;101333.59;5038172;28;20035;-75
2021/12/11 09:40:36;;;;;;;19.30;11.85;;;;;;;7.99;69.07;101342.16;5036458;28;20059;-76
2021/12/11 09:43:02;;;;;;;26.40;13.68;;;;;;;8.38;66.64;101345.22;5034793;28;20618;-76
2021/12/11 09:45:37;;;;;;;21.65;12.68;;;;;;;9.38;67.36;101356.28;5042996;28;20121;-76
2021/12/11 09:48:11;;;;;;;20.02;11.50;;;;;;;10.45;61.91;101353.25;5038444;28;20041;-76
2021/12/11 09:50:48;;;;;;;18.02;10.85;;;;;;;10.50;58.75;101366.88;5040874;28;20021;-75
2021/12/11 09:53:17;;;;;;;17.20;11.40;;;;;;;10.02;59.94;101359.66;5036612;28;20052;-75
2021/12/11 09:55:44;;;;;;;15.07;10.32;;;;;;;9.54;61.53;101353.19;5045054;28;20391;-74
2021/12/11 09:58:19;;;;;;;16.85;10.63;;;;;;;9.74;61.18;101367.31;5036257;28;20048;-74
2021/12/11 10:00:52;;;;;;;15.75;10.55;;;;;;;10.12;61.81;101370.22;5041276;28;20428;-74
2021/12/11 10:03:22;;;;;;;13.95;10.32;;;;;;;10.93;59.15;101359.53;5041777;28;20537;-74
2021/12/11 10:05:55;;;;;;;15.15;10.57;;;;;;;11.00;57.14;101363.28;5038272;28;20422;-75
2021/12/11 10:08:39;;;;;;;18.45;10.98;;;;;;;9.10;60.36;101373.56;5036974;28;20028;-75
2021/12/11 10:11:18;;;;;;;15.27;9.85;;;;;;;9.84;61.73;101369.97;5032702;28;20533;-75
2021/12/11 10:13:52;;;;;;;19.38;10.43;;;;;;;10.14;62.49;101389.38;5035548;28;20093;-75
2021/12/11 10:16:23;;;;;;;19.15;11.77;;;;;;;9.53;61.96;101384.94;5033674;28;20128;-74
2021/12/11 10:18:52;;;;;;;16.80;10.27;;;;;;;10.83;58.91;101376.22;5039805;28;20043;-74
2021/12/11 10:21:36;;;;;;;17.17;10.32;;;;;;;9.44;60.76;101386.56;5039171;28;20029;-74
2021/12/11 10:24:15;;;;;;;14.95;10.80;;;;;;;7.67;65.26;101377.06;5038784;28;20044;-75
2021/12/11 10:26:41;;;;;;;17.95;10.80;;;;;;;7.93;67.44;101388.19;5039368;28;20029;-74
2021/12/11 10:29:11;;;;;;;17.17;10.88;;;;;;;9.45;63.04;101389.06;5036940;28;20578;-74
2021/12/11 10:31:45;;;;;;;15.15;9.88;;;;;;;9.14;62.75;101363.63;5036497;28;20116;-74
2021/12/11 10:34:15;;;;;;;17.33;10.27;;;;;;;8.95;64.27;101391.50;5032861;28;20022;-74
2021/12/11 10:36:49;;;;;;;17.83;10.63;;;;;;;7.81;66.40;101371.56;5033196;28;20044;-74
2021/12/11 10:39:16;;;;;;;16.33;9.98;;;;;;;7.73;67.63;101379.22;5032104;28;20033;-75
2021/12/11 10:41:42;;;;;;;18.20;9.30;;;;;;;7.71;68.58;101393.41;5035556;28;20046;-74
2021/12/11 10:44:13;;;;;;;16.10;9.80;;;;;;;7.88;67.99;101368.47;5037483;28;20036;-74
2021/12/11 10:46:43;;;;;;;17.55;10.70;;;;;;;6.70;71.69;101397.41;5030624;28;20030;-74
2021/12/11 10:49:11;;;;;;;17.92;9.60;;;;;;;7.69;70.26;101390.09;5034887;28;20380;-75
2021/12/11 10:51:43;;;;;;;18.98;10.85;;;;;;;7.53;69.16;101391.25;5025460;28;20052;-74
2021/12/11 10:54:11;;;;;;;15.35;10.20;;;;;;;6.83;71.11;101402.59;5033813;28;20063;-73
2021/12/11 10:56:37;;;;;;;18.75;11.40;;;;;;;6.12;74.11;101410.28;5035540;28;20037;-73
2021/12/11 10:59:11;;;;;;;15.93;9.73;;;;;;;5.64;77.29;101411.81;5037461;28;20045;-73
2021/12/11 11:01:39;;;;;;;17.77;10.10;;;;;;;5.57;78.22;101411.41;5031644;28;20033;-73
2021/12/11 11:04:11;;;;;;;15.85;11.43;;;;;;;6.11;76.43;101390.22;5037768;28;20037;-73
2021/12/11 11:06:37;;;;;;;20.45;10.68;;;;;;;6.02;76.15;101411.00;5039693;28;20055;-74
2021/12/11 11:09:07;;;;;;;20.48;11.05;;;;;;;5.06;78.65;101390.38;5028392;28;20040;-73
2021/12/11 11:11:36;;;;;;;20.27;10.63;;;;;;;5.10;79.99;101413.63;5039192;28;20028;-73
2021/12/11 11:14:02;;;;;;;19.48;10.93;;;;;;;4.63;81.71;101414.06;5036087;28;20362;-73
2021/12/11 11:16:28;;;;;;;20.15;11.43;;;;;;;4.15;84.63;101424.06;5043669;28;20119;-73
2021/12/11 11:18:54;;;;;;;21.00;11.40;;;;;;;3.69;86.10;101420.66;5034158;28;20040;-73
2021/12/11 11:21:27;;;;;;;18.60;11.18;;;;;;;3.71;87.42;101421.41;5039001;28;20033;-74
2021/12/11 11:23:53;;;;;;;16.65;9.27;;;;;;;3.75;88.06;101419.47;5030891;28;20032;-74
2021/12/11 11:26:23;;;;;;;17.73;10.13;;;;;;;4.22;88.04;101430.56;5032747;28;20056;-74
2021/12/11 11:28:49;;;;;;;19.40;10.23;;;;;;;4.38;86.60;101431.31;5029558;28;20075;-74
2021/12/11 11:31:22;;;;;;;17.98;10.30;;;;;;;4.32;87.53;101436.91;5030250;28;20036;-74
2021/12/11 11:33:48;;;;;;;17.00;9.02;;;;;;;4.56;87.19;101458.06;5027803;28;20083;-74
2021/12/11 11:36:19;;;;;;;18.90;10.43;;;;;;;4.89;86.63;101452.47;5030148;28;20116;-74
2021/12/11 11:38:49;;;;;;;22.30;10.47;;;;;;;4.96;85.78;101450.28;5027553;28;20423;-74